createdAt,value
2022-09-02T00:00:14.854Z,9.719641
2022-09-02T00:01:14.896Z,9.719602
2022-09-02T00:02:14.938Z,9.719604
2022-09-02T00:03:14.970Z,9.719587
2022-09-02T00:04:14.815Z,9.719563
2022-09-02T00:05:14.804Z,9.719596
2022-09-02T00:06:14.801Z,9.719605
2022-09-02T00:07:14.802Z,9.719612
2022-09-02T00:08:14.790Z,9.719660
2022-09-02T00:09:14.764Z,9.719667
2022-09-02T00:10:14.758Z,9.719614
2022-09-02T00:11:14.748Z,9.719547
2022-09-02T00:12:14.737Z,9.719578
2022-09-02T00:13:14.734Z,9.719620
2022-09-02T00:14:14.736Z,9.719675
2022-09-02T00:15:14.707Z,9.719664
2022-09-02T00:16:14.762Z,9.719629
2022-09-02T00:17:14.690Z,9.719674
2022-09-02T00:18:15.415Z,9.719680
2022-09-02T00:19:14.673Z,9.719673
2022-09-02T00:20:14.663Z,9.719652
2022-09-02T00:21:14.658Z,9.719629
2022-09-02T00:22:14.644Z,9.719645
2022-09-02T00:23:14.644Z,9.719634
2022-09-02T00:24:14.621Z,9.719625
2022-09-02T00:25:14.629Z,9.719639
2022-09-02T00:26:14.605Z,9.719632
2022-09-02T00:27:14.590Z,9.719621
2022-09-02T00:28:14.598Z,9.719625
2022-09-02T00:29:14.595Z,9.719671
2022-09-02T00:30:14.565Z,9.719675
2022-09-02T00:31:14.577Z,9.719688
2022-09-02T00:32:14.535Z,9.719666
2022-09-02T00:33:14.548Z,9.719689
2022-09-02T00:34:14.520Z,9.719681
2022-09-02T00:35:14.513Z,9.719660
2022-09-02T00:36:14.497Z,9.719726
2022-09-02T00:37:14.495Z,9.719734
2022-09-02T00:38:14.491Z,9.719745
2022-09-02T00:39:14.478Z,9.719716
2022-09-02T00:40:14.557Z,9.719755
2022-09-02T00:41:14.457Z,9.719696
2022-09-02T00:42:14.440Z,9.719703
2022-09-02T00:43:14.475Z,9.719679
2022-09-02T00:44:14.437Z,9.719663
2022-09-02T00:45:14.419Z,9.719721
2022-09-02T00:46:14.446Z,9.719708
2022-09-02T00:47:14.402Z,9.719651
2022-09-02T00:48:14.403Z,9.719619
2022-09-02T00:49:14.382Z,9.719864
2022-09-02T00:50:14.372Z,9.720027
2022-09-02T00:51:14.361Z,9.720012
2022-09-02T00:52:14.351Z,9.719875
2022-09-02T00:53:14.400Z,9.719754
2022-09-02T00:54:14.335Z,9.719611
2022-09-02T00:55:14.337Z,9.719711
2022-09-02T00:56:14.312Z,9.719678
2022-09-02T00:57:14.307Z,9.719628
2022-09-02T00:58:14.384Z,9.719588
2022-09-02T00:59:14.289Z,9.719649
2022-09-02T01:00:14.269Z,9.719657
2022-09-02T01:01:14.454Z,9.719675
2022-09-02T01:02:14.353Z,9.719645
2022-09-02T01:03:14.327Z,9.719646
2022-09-02T01:04:14.239Z,9.719650
2022-09-02T01:05:14.230Z,9.719639
2022-09-02T01:06:14.246Z,9.719654
2022-09-02T01:07:14.210Z,9.719585
2022-09-02T01:08:14.207Z,9.719569
2022-09-02T01:09:14.194Z,9.719595
2022-09-02T01:10:14.176Z,9.719652
2022-09-02T01:11:14.173Z,9.719585
2022-09-02T01:12:14.170Z,9.719628
2022-09-02T01:13:14.170Z,9.719694
2022-09-02T01:14:14.143Z,9.719722
2022-09-02T01:15:14.134Z,9.719657
2022-09-02T01:16:14.140Z,9.719729
2022-09-02T01:17:14.120Z,9.719669
2022-09-02T01:18:14.121Z,9.719626
2022-09-02T01:19:14.147Z,9.719672
2022-09-02T01:20:14.085Z,9.719672
2022-09-02T01:21:14.083Z,9.719593
2022-09-02T01:22:14.071Z,9.719639
2022-09-02T01:23:14.139Z,9.719629
2022-09-02T01:24:14.049Z,9.719687
2022-09-02T01:25:14.067Z,9.719664
2022-09-02T01:26:14.031Z,9.719715
2022-09-02T01:27:14.029Z,9.719610
2022-09-02T01:28:14.028Z,9.719680
2022-09-02T01:29:14.005Z,9.719694
2022-09-02T01:30:14.023Z,9.719721
2022-09-02T01:31:14.093Z,9.719619
2022-09-02T01:32:13.979Z,9.719635
2022-09-02T01:33:14.034Z,9.719675
2022-09-02T01:34:13.955Z,9.719670
2022-09-02T01:35:13.952Z,9.719656
2022-09-02T01:36:13.935Z,9.719800
2022-09-02T01:37:13.926Z,9.719777
2022-09-02T01:38:13.944Z,9.719614
2022-09-02T01:39:13.915Z,9.719608
2022-09-02T01:40:13.944Z,9.719618
2022-09-02T01:41:13.884Z,9.719641
2022-09-02T01:42:13.875Z,9.719659
2022-09-02T01:43:13.949Z,9.719627
2022-09-02T01:44:13.854Z,9.719612
2022-09-02T01:45:13.932Z,9.719631
2022-09-02T01:46:13.884Z,9.719625
2022-09-02T01:47:13.831Z,9.719618
2022-09-02T01:48:13.870Z,9.719580
2022-09-02T01:49:13.808Z,9.719586
2022-09-02T01:50:13.803Z,9.719653
2022-09-02T01:51:13.792Z,9.719582
2022-09-02T01:52:13.778Z,9.719660
2022-09-02T01:53:13.828Z,9.719658
2022-09-02T01:54:13.760Z,9.719642
2022-09-02T01:55:13.755Z,9.719567
2022-09-02T01:56:13.746Z,9.719565
2022-09-02T01:57:13.739Z,9.719650
2022-09-02T01:58:13.739Z,9.719645
2022-09-02T01:59:13.718Z,9.719681
2022-09-02T02:00:13.714Z,9.719588
2022-09-02T02:01:13.800Z,9.719658
2022-09-02T02:02:13.729Z,9.719644
2022-09-02T02:03:13.703Z,9.719626
2022-09-02T02:04:13.739Z,9.719663
2022-09-02T02:05:13.658Z,9.719603
2022-09-02T02:06:13.641Z,9.719663
2022-09-02T02:07:13.634Z,9.719661
2022-09-02T02:08:13.633Z,9.719637
2022-09-02T02:09:13.610Z,9.719532
2022-09-02T02:10:13.647Z,9.719533
2022-09-02T02:11:13.599Z,9.719588
2022-09-02T02:12:13.582Z,9.719588
2022-09-02T02:13:13.688Z,9.719758
2022-09-02T02:14:13.562Z,9.719786
2022-09-02T02:15:13.557Z,9.719747
2022-09-02T02:16:13.586Z,9.719650
2022-09-02T02:17:13.541Z,9.719574
2022-09-02T02:18:13.543Z,9.719594
2022-09-02T02:19:13.531Z,9.719699
2022-09-02T02:20:13.511Z,9.719616
2022-09-02T02:21:13.499Z,9.719635
2022-09-02T02:22:13.486Z,9.719605
2022-09-02T02:23:13.589Z,9.719582
2022-09-02T02:24:13.475Z,9.719822
2022-09-02T02:25:13.469Z,9.719657
2022-09-02T02:26:13.525Z,9.719709
2022-09-02T02:27:13.441Z,9.719638
2022-09-02T02:28:13.441Z,9.719571
2022-09-02T02:29:13.443Z,9.719627
2022-09-02T02:30:13.415Z,9.719528
2022-09-02T02:31:13.428Z,9.719583
2022-09-02T02:32:13.391Z,9.719604
2022-09-02T02:33:13.382Z,9.719698
2022-09-02T02:34:13.386Z,9.719706
2022-09-02T02:35:13.364Z,9.719555
2022-09-02T02:36:13.358Z,9.719575
2022-09-02T02:37:13.426Z,9.719639
2022-09-02T02:38:14.433Z,9.719651
2022-09-02T02:39:13.350Z,9.719668
2022-09-02T02:40:13.338Z,9.719673
2022-09-02T02:41:13.311Z,9.719662
2022-09-02T02:42:13.301Z,9.719686
2022-09-02T02:43:13.293Z,9.719645
2022-09-02T02:44:13.293Z,9.719698
2022-09-02T02:45:15.339Z,9.719594
2022-09-02T02:46:13.291Z,9.719636
2022-09-02T02:47:13.251Z,9.719655
2022-09-02T02:48:13.237Z,9.719701
2022-09-02T02:49:13.241Z,9.719671
2022-09-02T02:50:13.249Z,9.719682
2022-09-02T02:51:13.233Z,9.719694
2022-09-02T02:52:13.217Z,9.719698
2022-09-02T02:53:14.138Z,9.719700
2022-09-02T02:54:13.196Z,9.719700
2022-09-02T02:55:13.175Z,9.719703
2022-09-02T02:56:13.164Z,9.719663
2022-09-02T02:57:13.156Z,9.719620
2022-09-02T02:58:13.143Z,9.719626
2022-09-02T02:59:13.164Z,9.719691
2022-09-02T03:00:13.120Z,9.719636
2022-09-02T03:01:13.119Z,9.719647
2022-09-02T03:02:13.244Z,9.719650
2022-09-02T03:03:13.101Z,9.719626
2022-09-02T03:04:13.100Z,9.719628
2022-09-02T03:05:13.082Z,9.719618
2022-09-02T03:06:13.071Z,9.719650
2022-09-02T03:07:13.067Z,9.719622
2022-09-02T03:08:13.045Z,9.719643
2022-09-02T03:09:13.060Z,9.719609
2022-09-02T03:10:13.104Z,9.719591
2022-09-02T03:11:13.022Z,9.719597
2022-09-02T03:12:13.010Z,9.719588
2022-09-02T03:13:13.007Z,9.719593
2022-09-02T03:14:12.998Z,9.719539
2022-09-02T03:15:12.979Z,9.719543
2022-09-02T03:16:12.987Z,9.719576
2022-09-02T03:17:12.957Z,9.719568
2022-09-02T03:18:12.948Z,9.719628
2022-09-02T03:19:12.956Z,9.719591
2022-09-02T03:20:12.924Z,9.719560
2022-09-02T03:21:12.919Z,9.719607
2022-09-02T03:22:12.931Z,9.719469
2022-09-02T03:23:12.898Z,9.719578
2022-09-02T03:24:12.900Z,9.719589
2022-09-02T03:25:12.884Z,9.719577
2022-09-02T03:26:12.870Z,9.719660
2022-09-02T03:27:12.867Z,9.719677
2022-09-02T03:28:12.847Z,9.719675
2022-09-02T03:29:12.864Z,9.719618
2022-09-02T03:30:12.875Z,9.719715
2022-09-02T03:31:12.851Z,9.719682
2022-09-02T03:32:12.812Z,9.719450
2022-09-02T03:33:12.806Z,9.719558
2022-09-02T03:34:12.809Z,9.719695
2022-09-02T03:35:12.786Z,9.719514
2022-09-02T03:36:12.774Z,9.719450
2022-09-02T03:37:12.798Z,9.719578
2022-09-02T03:38:12.751Z,9.719441
2022-09-02T03:39:12.759Z,9.719545
2022-09-02T03:40:12.777Z,9.719522
2022-09-02T03:41:12.727Z,9.719666
2022-09-02T03:42:19.217Z,9.719539
2022-09-02T03:43:13.759Z,9.719714
2022-09-02T03:44:12.702Z,9.719680
2022-09-02T03:45:12.699Z,9.719615
2022-09-02T03:46:12.719Z,9.719542
2022-09-02T03:47:12.666Z,9.719739
2022-09-02T03:48:12.656Z,9.719545
2022-09-02T03:49:12.648Z,9.719434
2022-09-02T03:50:12.741Z,9.719878
2022-09-02T03:51:12.622Z,9.719666
2022-09-02T03:52:12.606Z,9.719679
2022-09-02T03:53:18.245Z,9.719796
2022-09-02T03:54:12.589Z,9.719602
2022-09-02T03:55:12.621Z,9.719363
2022-09-02T03:56:13.105Z,9.719393
2022-09-02T03:57:12.566Z,9.719185
2022-09-02T03:58:12.555Z,9.719046
2022-09-02T03:59:12.546Z,9.718682
2022-09-02T04:00:12.673Z,9.718857
2022-09-02T04:01:12.549Z,9.718768
2022-09-02T04:02:12.658Z,9.719593
2022-09-02T04:03:12.527Z,9.720308
2022-09-02T04:04:12.490Z,9.720056
2022-09-02T04:05:15.639Z,9.720124
2022-09-02T04:06:12.469Z,9.720196
2022-09-02T04:07:12.468Z,9.720187
2022-09-02T04:08:12.453Z,9.720209
2022-09-02T04:09:12.444Z,9.720079
2022-09-02T04:10:12.445Z,9.720098
2022-09-02T04:11:12.424Z,9.720098
2022-09-02T04:12:12.415Z,9.719220
2022-09-02T04:13:12.408Z,9.719279
2022-09-02T04:14:12.408Z,9.719079
2022-09-02T04:15:12.398Z,9.719150
2022-09-02T04:16:12.415Z,9.719743
2022-09-02T04:17:12.361Z,9.719737
2022-09-02T04:18:12.353Z,9.719515
2022-09-02T04:19:12.346Z,9.719576
2022-09-02T04:20:12.356Z,9.719623
2022-09-02T04:21:12.329Z,9.719571
2022-09-02T04:22:12.318Z,9.719613
2022-09-02T04:23:12.309Z,9.719623
2022-09-02T04:24:12.302Z,9.719499
2022-09-02T04:25:12.302Z,9.719657
2022-09-02T04:26:12.341Z,9.719626
2022-09-02T04:27:12.272Z,9.719720
2022-09-02T04:28:12.269Z,9.719630
2022-09-02T04:29:12.247Z,9.719600
2022-09-02T04:30:12.256Z,9.719665
2022-09-02T04:31:12.317Z,9.719642
2022-09-02T04:32:12.224Z,9.719602
2022-09-02T04:33:12.206Z,9.719653
2022-09-02T04:34:12.197Z,9.720069
2022-09-02T04:35:12.206Z,9.719709
2022-09-02T04:36:12.808Z,9.719527
2022-09-02T04:37:12.177Z,9.719548
2022-09-02T04:38:12.166Z,9.719577
2022-09-02T04:39:12.156Z,9.719670
2022-09-02T04:40:12.231Z,9.719634
2022-09-02T04:41:12.133Z,9.719627
2022-09-02T04:42:12.124Z,9.719660
2022-09-02T04:43:12.131Z,9.719577
2022-09-02T04:44:12.122Z,9.719683
2022-09-02T04:45:12.108Z,9.719739
2022-09-02T04:46:12.268Z,9.719665
2022-09-02T04:47:12.079Z,9.719643
2022-09-02T04:48:12.081Z,9.719666
2022-09-02T04:49:12.060Z,9.719671
2022-09-02T04:50:12.064Z,9.719658
2022-09-02T04:51:12.033Z,9.719655
2022-09-02T04:52:12.040Z,9.719673
2022-09-02T04:53:12.090Z,9.719661
2022-09-02T04:54:12.015Z,9.719671
2022-09-02T04:55:12.023Z,9.719693
2022-09-02T04:56:12.018Z,9.719725
2022-09-02T04:57:11.981Z,9.719691
2022-09-02T04:58:11.971Z,9.719816
2022-09-02T04:59:11.961Z,9.719729
2022-09-02T05:00:11.971Z,9.719671
2022-09-02T05:01:12.030Z,9.719716
2022-09-02T05:02:12.105Z,9.719728
2022-09-02T05:03:11.918Z,9.719890
2022-09-02T05:04:11.944Z,9.719840
2022-09-02T05:05:11.907Z,9.719766
2022-09-02T05:06:11.897Z,9.719658
2022-09-02T05:07:11.883Z,9.719672
2022-09-02T05:08:11.904Z,9.719646
2022-09-02T05:09:11.860Z,9.719669
2022-09-02T05:10:11.874Z,9.719657
2022-09-02T05:11:11.841Z,9.719647
2022-09-02T05:12:11.838Z,9.719646
2022-09-02T05:13:11.825Z,9.719664
2022-09-02T05:14:11.816Z,9.719668
2022-09-02T05:15:11.833Z,9.719661
2022-09-02T05:16:11.847Z,9.719646
2022-09-02T05:17:11.786Z,9.719633
2022-09-02T05:18:11.778Z,9.719637
2022-09-02T05:19:11.774Z,9.719661
2022-09-02T05:20:11.776Z,9.719708
2022-09-02T05:21:11.750Z,9.719780
2022-09-02T05:22:11.741Z,9.719653
2022-09-02T05:23:11.726Z,9.719678
2022-09-02T05:24:11.724Z,9.719610
2022-09-02T05:25:11.716Z,9.719625
2022-09-02T05:26:11.707Z,9.719616
2022-09-02T05:27:11.687Z,9.719627
2022-09-02T05:28:11.696Z,9.719636
2022-09-02T05:29:11.665Z,9.719563
2022-09-02T05:30:11.678Z,9.719646
2022-09-02T05:31:11.704Z,9.719656
2022-09-02T05:32:11.640Z,9.719649
2022-09-02T05:33:13.596Z,9.719681
2022-09-02T05:34:11.619Z,9.719660
2022-09-02T05:35:11.640Z,9.719683
2022-09-02T05:36:11.604Z,9.719631
2022-09-02T05:37:11.596Z,9.719623
2022-09-02T05:38:11.581Z,9.719585
2022-09-02T05:39:11.578Z,9.719619
2022-09-02T05:40:11.646Z,9.719592
2022-09-02T05:41:11.542Z,9.719647
2022-09-02T05:42:11.550Z,9.719624
2022-09-02T05:43:11.532Z,9.719670
2022-09-02T05:44:11.530Z,9.719696
2022-09-02T05:45:11.526Z,9.719664
2022-09-02T05:46:11.773Z,9.719691
2022-09-02T05:47:11.491Z,9.719700
2022-09-02T05:48:11.498Z,9.719671
2022-09-02T05:49:11.491Z,9.719639
2022-09-02T05:50:11.477Z,9.719672
2022-09-02T05:51:11.448Z,9.719701
2022-09-02T05:52:11.445Z,9.719717
2022-09-02T05:53:14.716Z,9.719678
2022-09-02T05:54:11.422Z,9.719671
2022-09-02T05:55:11.698Z,9.719650
2022-09-02T05:56:11.406Z,9.719630
2022-09-02T05:57:11.391Z,9.719654
2022-09-02T05:58:11.384Z,9.719648
2022-09-02T05:59:11.378Z,9.719675
2022-09-02T06:00:11.388Z,9.719663
2022-09-02T06:01:12.356Z,9.719692
2022-09-02T06:02:11.583Z,9.719675
2022-09-02T06:03:11.380Z,9.719621
2022-09-02T06:04:11.324Z,9.719663
2022-09-02T06:05:11.311Z,9.719627
2022-09-02T06:06:11.315Z,9.719620
2022-09-02T06:07:11.774Z,9.719622
2022-09-02T06:08:11.290Z,9.719698
2022-09-02T06:09:11.275Z,9.719755
2022-09-02T06:10:11.268Z,9.719699
2022-09-02T06:11:11.267Z,9.719683
2022-09-02T06:12:11.249Z,9.719700
2022-09-02T06:13:11.237Z,9.719666
2022-09-02T06:14:11.229Z,9.719700
2022-09-02T06:15:11.211Z,9.719713
2022-09-02T06:16:11.285Z,9.719708
2022-09-02T06:17:11.194Z,9.719701
2022-09-02T06:18:11.187Z,9.719702
2022-09-02T06:19:11.167Z,9.719696
2022-09-02T06:20:11.949Z,9.719687
2022-09-02T06:21:11.170Z,9.719704
2022-09-02T06:22:11.532Z,9.719680
2022-09-02T06:23:11.129Z,9.719669
2022-09-02T06:24:11.126Z,9.719686
2022-09-02T06:25:11.112Z,9.719692
2022-09-02T06:26:11.124Z,9.719650
2022-09-02T06:27:11.101Z,9.719661
2022-09-02T06:28:11.087Z,9.719682
2022-09-02T06:29:11.085Z,9.719654
2022-09-02T06:30:11.103Z,9.719689
2022-09-02T06:31:11.120Z,9.719680
2022-09-02T06:32:11.050Z,9.719695
2022-09-02T06:33:11.039Z,9.719667
2022-09-02T06:34:11.022Z,9.719674
2022-09-02T06:35:11.023Z,9.719678
2022-09-02T06:36:11.089Z,9.719731
2022-09-02T06:37:10.996Z,9.719669
2022-09-02T06:38:10.989Z,9.719686
2022-09-02T06:39:10.977Z,9.719667
2022-09-02T06:40:11.153Z,9.719678
2022-09-02T06:41:10.954Z,9.719687
2022-09-02T06:42:10.956Z,9.719620
2022-09-02T06:43:10.940Z,9.719656
2022-09-02T06:44:10.927Z,9.719716
2022-09-02T06:45:10.929Z,9.719687
2022-09-02T06:46:10.970Z,9.719693
2022-09-02T06:47:10.899Z,9.719695
2022-09-02T06:48:10.888Z,9.719626
2022-09-02T06:49:10.876Z,9.719637
2022-09-02T06:50:10.868Z,9.719660
2022-09-02T06:51:10.865Z,9.719678
2022-09-02T06:52:10.862Z,9.719697
2022-09-02T06:53:10.836Z,9.719671
2022-09-02T06:54:10.903Z,9.719672
2022-09-02T06:55:10.821Z,9.719655
2022-09-02T06:56:10.832Z,9.719720
2022-09-02T06:57:10.808Z,9.719687
2022-09-02T06:58:10.791Z,9.719805
2022-09-02T06:59:10.785Z,9.719722
2022-09-02T07:00:10.774Z,9.719857
2022-09-02T07:01:10.866Z,9.719711
2022-09-02T07:02:10.940Z,9.719674
2022-09-02T07:03:10.734Z,9.719698
2022-09-02T07:04:10.730Z,9.719570
2022-09-02T07:05:10.723Z,9.719578
2022-09-02T07:06:10.717Z,9.719625
2022-09-02T07:07:10.697Z,9.719596
2022-09-02T07:08:10.692Z,9.719711
2022-09-02T07:09:10.718Z,9.719592
2022-09-02T07:10:10.683Z,9.719625
2022-09-02T07:11:10.670Z,9.719609
2022-09-02T07:12:10.649Z,9.719654
2022-09-02T07:13:10.633Z,9.719686
2022-09-02T07:14:10.629Z,9.719689
2022-09-02T07:15:10.625Z,9.719593
2022-09-02T07:16:10.661Z,9.719647
2022-09-02T07:17:10.638Z,9.719609
2022-09-02T07:18:10.583Z,9.719620
2022-09-02T07:19:15.021Z,9.719601
2022-09-02T07:20:11.567Z,9.719615
2022-09-02T07:21:10.566Z,9.719615
2022-09-02T07:22:10.547Z,9.719618
2022-09-02T07:23:10.530Z,9.719600
2022-09-02T07:24:10.527Z,9.719630
2022-09-02T07:25:10.509Z,9.719627
2022-09-02T07:26:10.582Z,9.719616
2022-09-02T07:27:10.493Z,9.719639
2022-09-02T07:28:10.494Z,9.719671
2022-09-02T07:29:10.475Z,9.719604
2022-09-02T07:30:10.468Z,9.719625
2022-09-02T07:31:10.489Z,9.719621
2022-09-02T07:32:10.449Z,9.719577
2022-09-02T07:33:10.434Z,9.719613
2022-09-02T07:34:10.427Z,9.719616
2022-09-02T07:35:10.417Z,9.719641
2022-09-02T07:36:11.148Z,9.719690
2022-09-02T07:37:11.091Z,9.719657
2022-09-02T07:38:10.389Z,9.719667
2022-09-02T07:39:10.374Z,9.719645
2022-09-02T07:40:10.414Z,9.719644
2022-09-02T07:41:10.384Z,9.719639
2022-09-02T07:42:10.349Z,9.719641
2022-09-02T07:43:10.338Z,9.719707
2022-09-02T07:44:10.325Z,9.719671
2022-09-02T07:45:10.318Z,9.719654
2022-09-02T07:46:10.399Z,9.719656
2022-09-02T07:47:10.295Z,9.719584
2022-09-02T07:48:10.293Z,9.719593
2022-09-02T07:49:10.277Z,9.719603
2022-09-02T07:50:20.091Z,9.719620
2022-09-02T07:51:11.274Z,9.719603
2022-09-02T07:52:10.253Z,9.719633
2022-09-02T07:53:10.240Z,9.719627
2022-09-02T07:54:10.235Z,9.719625
2022-09-02T07:55:14.499Z,9.719611
2022-09-02T07:56:10.227Z,9.719667
2022-09-02T07:57:10.202Z,9.719665
2022-09-02T07:58:10.192Z,9.719664
2022-09-02T07:59:11.184Z,9.719645
2022-09-02T08:00:10.178Z,9.719602
2022-09-02T08:01:10.294Z,9.719610
2022-09-02T08:02:10.194Z,9.719618
2022-09-02T08:03:10.212Z,9.719605
2022-09-02T08:04:10.133Z,9.719666
2022-09-02T08:05:10.136Z,9.719685
2022-09-02T08:06:10.141Z,9.719648
2022-09-02T08:07:10.122Z,9.719627
2022-09-02T08:08:10.111Z,9.719629
2022-09-02T08:09:10.090Z,9.719612
2022-09-02T08:10:10.081Z,9.719642
2022-09-02T08:11:10.087Z,9.719566
2022-09-02T08:12:10.063Z,9.719657
2022-09-02T08:13:10.053Z,9.719668
2022-09-02T08:14:10.047Z,9.719614
2022-09-02T08:15:10.027Z,9.719669
2022-09-02T08:16:10.116Z,9.719672
2022-09-02T08:17:10.013Z,9.719741
2022-09-02T08:18:14.465Z,9.719682
2022-09-02T08:19:10.985Z,9.719645
2022-09-02T08:20:12.434Z,9.719682
2022-09-02T08:21:09.991Z,9.719621
2022-09-02T08:22:09.968Z,9.719671
2022-09-02T08:23:18.449Z,9.719597
2022-09-02T08:24:10.951Z,9.719557
2022-09-02T08:25:09.931Z,9.719655
2022-09-02T08:26:09.960Z,9.719652
2022-09-02T08:27:09.931Z,9.719592
2022-09-02T08:28:09.908Z,9.719695
2022-09-02T08:29:09.894Z,9.719641
2022-09-02T08:30:09.932Z,9.719666
2022-09-02T08:31:09.898Z,9.719684
2022-09-02T08:32:09.925Z,9.719600
2022-09-02T08:33:09.858Z,9.719538
2022-09-02T08:34:09.859Z,9.719567
2022-09-02T08:35:09.835Z,9.719597
2022-09-02T08:36:09.846Z,9.719683
2022-09-02T08:37:09.820Z,9.719635
2022-09-02T08:38:09.814Z,9.719607
2022-09-02T08:39:09.813Z,9.719591
2022-09-02T08:40:09.864Z,9.719730
2022-09-02T08:41:09.798Z,9.719795
2022-09-02T08:42:09.774Z,9.719810
2022-09-02T08:43:09.767Z,9.719638
2022-09-02T08:44:09.872Z,9.719653
2022-09-02T08:45:09.735Z,9.719706
2022-09-02T08:46:09.859Z,9.719677
2022-09-02T08:47:09.724Z,9.719698
2022-09-02T08:48:09.738Z,9.719681
2022-09-02T08:49:09.702Z,9.719705
2022-09-02T08:50:09.708Z,9.719749
2022-09-02T08:51:10.043Z,9.719666
2022-09-02T08:52:09.670Z,9.719633
2022-09-02T08:53:09.661Z,9.719597
2022-09-02T08:54:09.649Z,9.719615
2022-09-02T08:55:09.644Z,9.719584
2022-09-02T08:56:09.632Z,9.719599
2022-09-02T08:57:09.685Z,9.719600
2022-09-02T08:58:09.620Z,9.719631
2022-09-02T08:59:09.602Z,9.719644
2022-09-02T09:00:09.590Z,9.719610
2022-09-02T09:01:09.668Z,9.719711
2022-09-02T09:02:09.665Z,9.719665
2022-09-02T09:03:09.565Z,9.719683
2022-09-02T09:04:09.581Z,9.719601
2022-09-02T09:05:09.545Z,9.719638
2022-09-02T09:06:09.541Z,9.719650
2022-09-02T09:07:09.552Z,9.719670
2022-09-02T09:08:12.382Z,9.719637
2022-09-02T09:09:10.506Z,9.719632
2022-09-02T09:10:09.501Z,9.719615
2022-09-02T09:11:09.497Z,9.719658
2022-09-02T09:12:09.488Z,9.719589
2022-09-02T09:13:09.477Z,9.719473
2022-09-02T09:14:09.474Z,9.719653
2022-09-02T09:15:09.456Z,9.719589
2022-09-02T09:16:09.492Z,9.719596
2022-09-02T09:17:09.465Z,9.719616
2022-09-02T09:18:09.444Z,9.719655
2022-09-02T09:19:09.433Z,9.719696
2022-09-02T09:20:09.421Z,9.719694
2022-09-02T09:21:10.377Z,9.719639
2022-09-02T09:22:09.662Z,9.719621
2022-09-02T09:23:09.431Z,9.719631
2022-09-02T09:24:09.363Z,9.719669
2022-09-02T09:25:09.387Z,9.719678
2022-09-02T09:26:09.352Z,9.719596
2022-09-02T09:27:09.350Z,9.719683
2022-09-02T09:28:09.343Z,9.719646
2022-09-02T09:29:09.320Z,9.719628
2022-09-02T09:30:14.319Z,9.719691
2022-09-02T09:31:09.453Z,9.719635
2022-09-02T09:32:09.330Z,9.719644
2022-09-02T09:33:09.283Z,9.719678
2022-09-02T09:34:09.267Z,9.719671
2022-09-02T09:35:09.258Z,9.719799
2022-09-02T09:36:09.251Z,9.719831
2022-09-02T09:37:09.265Z,9.719795
2022-09-02T09:38:09.248Z,9.719723
2022-09-02T09:39:09.224Z,9.719576
2022-09-02T09:40:09.230Z,9.719659
2022-09-02T09:41:09.203Z,9.719539
2022-09-02T09:42:09.558Z,9.719622
2022-09-02T09:43:14.179Z,9.719657
2022-09-02T09:44:10.172Z,9.719761
2022-09-02T09:45:09.169Z,9.719654
2022-09-02T09:46:09.196Z,9.719656
2022-09-02T09:47:09.169Z,9.719740
2022-09-02T09:48:09.140Z,9.719711
2022-09-02T09:49:09.136Z,9.719649
2022-09-02T09:50:09.196Z,9.719633
2022-09-02T09:51:09.191Z,9.719736
2022-09-02T09:52:09.125Z,9.719751
2022-09-02T09:53:09.103Z,9.719753
2022-09-02T09:54:09.084Z,9.719766
2022-09-02T09:55:11.547Z,9.719786
2022-09-02T09:56:09.071Z,9.719795
2022-09-02T09:57:09.083Z,9.719758
2022-09-02T09:58:09.046Z,9.719701
2022-09-02T09:59:09.085Z,9.719706
2022-09-02T10:00:09.032Z,9.719699
2022-09-02T10:01:09.062Z,9.719708
2022-09-02T10:02:09.015Z,9.719743
2022-09-02T10:03:09.012Z,9.719708
2022-09-02T10:04:32.319Z,9.719716
2022-09-02T10:05:09.976Z,9.719715
2022-09-02T10:06:08.963Z,9.719713
2022-09-02T10:07:08.961Z,9.719711
2022-09-02T10:08:10.852Z,9.719731
2022-09-02T10:09:09.936Z,9.719722
2022-09-02T10:10:08.930Z,9.719708
2022-09-02T10:11:08.916Z,9.719726
2022-09-02T10:12:08.909Z,9.719715
2022-09-02T10:13:09.016Z,9.719736
2022-09-02T10:14:08.896Z,9.719784
2022-09-02T10:15:08.885Z,9.719774
2022-09-02T10:16:08.917Z,9.719750
2022-09-02T10:17:08.866Z,9.719743
2022-09-02T10:18:08.867Z,9.719774
2022-09-02T10:19:08.841Z,9.719761
2022-09-02T10:20:08.831Z,9.719753
2022-09-02T10:21:15.418Z,9.719768
2022-09-02T10:22:09.817Z,9.719749
2022-09-02T10:23:08.821Z,9.719679
2022-09-02T10:24:08.795Z,9.719641
2022-09-02T10:25:08.792Z,9.719580
2022-09-02T10:26:08.783Z,9.719564
2022-09-02T10:27:08.788Z,9.719543
2022-09-02T10:28:08.758Z,9.719568
2022-09-02T10:29:08.751Z,9.719562
2022-09-02T10:30:08.738Z,9.719604
2022-09-02T10:31:08.787Z,9.719631
2022-09-02T10:32:08.741Z,9.719597
2022-09-02T10:33:08.717Z,9.719579
2022-09-02T10:34:08.704Z,9.719683
2022-09-02T10:35:08.697Z,9.719707
2022-09-02T10:36:08.687Z,9.719775
2022-09-02T10:37:08.688Z,9.719735
2022-09-02T10:38:08.717Z,9.719548
2022-09-02T10:39:08.661Z,9.719442
2022-09-02T10:40:08.743Z,9.719307
2022-09-02T10:41:08.639Z,9.719263
2022-09-02T10:42:08.651Z,9.718987
2022-09-02T10:43:08.620Z,9.718768
2022-09-02T10:44:08.616Z,9.718485
2022-09-02T10:45:08.608Z,9.718351
2022-09-02T10:46:08.590Z,9.718028
2022-09-02T10:47:08.586Z,9.717757
2022-09-02T10:48:08.642Z,9.717708
2022-09-02T10:49:08.559Z,9.717780
2022-09-02T10:50:08.551Z,9.717972
2022-09-02T10:51:08.543Z,9.718247
2022-09-02T10:52:08.567Z,9.719438
2022-09-02T10:53:09.597Z,9.719667
2022-09-02T10:54:08.507Z,9.719690
2022-09-02T10:55:08.506Z,9.719838
2022-09-02T10:56:08.491Z,9.719831
2022-09-02T10:57:08.486Z,9.719753
2022-09-02T10:58:08.480Z,9.719735
2022-09-02T10:59:08.463Z,9.719688
2022-09-02T11:00:08.451Z,9.719647
2022-09-02T11:01:08.498Z,9.719673
2022-09-02T11:02:08.432Z,9.719674
2022-09-02T11:03:08.787Z,9.719650
2022-09-02T11:04:08.408Z,9.719710
2022-09-02T11:05:08.402Z,9.719706
2022-09-02T11:06:08.394Z,9.719687
2022-09-02T11:07:08.384Z,9.719654
2022-09-02T11:08:08.389Z,9.719643
2022-09-02T11:09:08.365Z,9.719643
2022-09-02T11:10:08.353Z,9.719649
2022-09-02T11:11:08.344Z,9.719653
2022-09-02T11:12:08.329Z,9.719661
2022-09-02T11:13:08.339Z,9.719658
2022-09-02T11:14:08.338Z,9.719665
2022-09-02T11:15:08.308Z,9.719655
2022-09-02T11:16:08.353Z,9.719674
2022-09-02T11:17:13.168Z,9.719651
2022-09-02T11:18:09.318Z,9.719659
2022-09-02T11:19:08.274Z,9.719675
2022-09-02T11:20:08.256Z,9.719613
2022-09-02T11:21:08.253Z,9.719622
2022-09-02T11:22:08.242Z,9.719620
2022-09-02T11:23:08.248Z,9.719638
2022-09-02T11:24:08.223Z,9.719639
2022-09-02T11:25:08.233Z,9.719652
2022-09-02T11:26:08.200Z,9.719468
2022-09-02T11:27:25.491Z,9.719529
2022-09-02T11:28:09.194Z,9.719582
2022-09-02T11:29:08.185Z,9.719663
2022-09-02T11:30:08.181Z,9.719604
2022-09-02T11:31:08.165Z,9.719614
2022-09-02T11:32:08.155Z,9.719548
2022-09-02T11:33:08.160Z,9.719586
2022-09-02T11:34:08.160Z,9.719582
2022-09-02T11:35:08.129Z,9.719561
2022-09-02T11:36:08.246Z,9.719723
2022-09-02T11:37:08.107Z,9.719744
2022-09-02T11:38:08.106Z,9.719660
2022-09-02T11:39:08.105Z,9.719527
2022-09-02T11:40:30.592Z,9.719730
2022-09-02T11:42:09.086Z,9.719611
2022-09-02T11:43:08.066Z,9.719564
2022-09-02T11:44:08.037Z,9.719566
2022-09-02T11:45:08.056Z,9.719555